Time;durP1;ratioP1;P1;durP2;ratioP2;P2;SDS_P1;SDS_P2;PMS_P1;PMS_P2;Temp;Humidity;BMP_temperature;BMP_pressure;BME280_temperature;BME280_humidity;BME280_pressure;Samples;Min_cycle;Max_cycle;Signal;HPM_P1;HPM_P2
2021/12/13 00:02:39;;;;;;;;;28.67;26.00;;;;;11.97;75.45;102258.69;4996423;28;45419;-68
2021/12/13 00:05:22;;;;;;;;;26.33;24.67;;;;;11.99;76.10;102257.59;4995386;28;45358;-67
2021/12/13 00:07:56;;;;;;;;;22.00;20.33;;;;;12.02;76.15;102246.75;4995094;28;47652;-68
2021/12/13 00:10:29;;;;;;;;;27.33;25.67;;;;;12.03;75.66;102253.78;4996539;28;45364;-69
2021/12/13 00:13:04;;;;;;;;;33.33;28.67;;;;;12.03;75.80;102252.91;4983322;28;45336;-68
2021/12/13 00:15:34;;;;;;;;;30.67;29.67;;;;;12.05;75.66;102256.31;4977225;28;45471;-68
2021/12/13 00:18:05;;;;;;;;;22.33;22.33;;;;;11.73;75.34;102197.41;4976961;28;46758;-67
2021/12/13 00:20:44;;;;;;;;;25.00;21.33;;;;;12.06;75.22;102252.69;4976353;28;45211;-68
2021/12/13 00:23:15;;;;;;;;;31.33;26.00;;;;;12.06;75.52;102250.00;4977054;28;45550;-68
2021/12/13 00:25:45;;;;;;;;;27.00;24.33;;;;;12.04;75.82;102246.63;4975525;28;45565;-69
2021/12/13 00:28:14;;;;;;;;;27.00;26.00;;;;;11.74;75.68;102181.31;4990395;28;46556;-69
2021/12/13 00:31:17;;;;;;;;;27.00;26.33;;;;;12.03;75.19;102240.44;4996520;28;45380;-68
2021/12/13 00:34:08;;;;;;;;;23.67;22.67;;;;;11.96;75.53;102230.34;4989784;28;45666;-67
2021/12/13 00:36:42;;;;;;;;;27.67;25.00;;;;;11.77;75.72;102205.06;4996435;28;45547;-69
2021/12/13 00:39:25;;;;;;;;;24.67;23.00;;;;;11.93;76.04;102230.59;4996088;28;45677;-68
2021/12/13 00:41:53;;;;;;;;;27.33;24.67;;;;;11.92;76.06;102228.88;4989703;28;45337;-67
2021/12/13 00:44:37;;;;;;;;;24.33;22.33;;;;;11.96;75.74;102235.66;4976498;28;45468;-68
2021/12/13 00:47:07;;;;;;;;;28.33;25.33;;;;;11.88;75.53;102218.47;4975603;28;45610;-68
2021/12/13 00:49:38;;;;;;;;;22.33;21.00;;;;;11.90;75.25;102214.81;4993798;28;46130;-69
2021/12/13 00:52:04;;;;;;;;;22.33;20.00;;;;;11.96;75.32;102225.84;4996232;28;45604;-69
2021/12/13 00:54:35;;;;;;;;;24.00;23.00;;;;;11.97;75.40;102226.72;4996078;28;45422;-68
2021/12/13 00:57:01;;;;;;;;;27.67;25.00;;;;;11.92;75.91;102224.41;4985338;28;45282;-68
2021/12/13 00:59:31;;;;;;;;;23.00;22.00;;;;;11.86;75.61;102214.22;4976407;28;46235;-69
2021/12/13 01:02:18;;;;;;;;;23.67;19.67;;;;;11.93;75.51;102227.91;4976363;28;45485;-68
2021/12/13 01:04:53;;;;;;;;;27.33;26.00;;;;;11.93;75.46;102227.91;4976652;28;45424;-68
2021/12/13 01:07:33;;;;;;;;;24.00;22.33;;;;;11.87;75.41;102227.44;4976576;28;45534;-69
2021/12/13 01:10:17;;;;;;;;;26.00;20.33;;;;;11.94;75.61;102237.59;4979538;28;46636;-69
2021/12/13 01:12:47;;;;;;;;;23.67;20.67;;;;;11.94;75.75;102241.13;4996411;28;45490;-70
2021/12/13 01:15:19;;;;;;;;;23.00;21.33;;;;;11.92;75.45;102240.41;4998148;28;45345;-68
2021/12/13 01:18:17;;;;;;;;;24.00;21.67;;;;;11.96;75.59;102241.00;4996559;28;45478;-69
2021/12/13 01:20:59;;;;;;;;;20.67;19.33;;;;;11.85;75.50;102216.03;4994356;28;45682;-68
2021/12/13 01:23:41;;;;;;;;;21.67;21.33;;;;;11.90;75.32;102225.50;4979647;28;45333;-68
2021/12/13 01:28:48;;;;;;;;;23.67;22.67;;;;;11.90;75.79;102225.50;4979917;28;45553;-68
2021/12/13 01:31:27;;;;;;;;;22.00;20.67;;;;;11.85;75.91;102226.69;4979249;28;46636;-68
2021/12/13 01:33:54;;;;;;;;;24.67;23.33;;;;;11.88;75.41;102229.13;4979231;28;45545;-69
2021/12/13 01:36:28;;;;;;;;;20.00;18.00;;;;;11.90;75.66;102231.66;4979525;28;45341;-68
2021/12/13 01:38:59;;;;;;;;;21.67;19.67;;;;;11.93;75.68;102230.59;4983952;28;45317;-68
2021/12/13 01:41:34;;;;;;;;;22.00;20.00;;;;;11.93;75.67;102230.59;4998784;28;46641;-68
2021/12/13 01:44:05;;;;;;;;;22.33;19.33;;;;;11.95;75.07;102237.50;4998705;28;45289;-67
2021/12/13 01:46:38;;;;;;;;;23.33;21.67;;;;;11.93;75.28;102233.25;4998702;28;45436;-67
2021/12/13 01:49:05;;;;;;;;;23.50;21.00;;;;;11.76;75.88;102214.00;4985911;28;45527;-68
2021/12/13 01:51:33;;;;;;;;;21.33;19.67;;;;;11.87;75.45;102231.91;4996266;28;45554;-68
2021/12/13 01:54:21;;;;;;;;;24.00;20.67;;;;;11.95;76.15;102240.16;4991410;28;45350;-69
2021/12/13 01:56:53;;;;;;;;;23.33;20.67;;;;;11.96;75.38;102235.66;4979078;28;45392;-68
2021/12/13 02:02:07;;;;;;;;;20.33;20.00;;;;;11.83;75.46;102220.63;4978931;28;45741;-68
2021/12/13 02:04:33;;;;;;;;;24.00;21.33;;;;;11.95;75.35;102236.63;4978762;28;45242;-68
2021/12/13 02:07:02;;;;;;;;;23.00;23.00;;;;;11.53;75.34;102173.13;4977753;28;45349;-68
2021/12/13 02:09:34;;;;;;;;;20.00;18.67;;;;;11.89;75.97;102237.97;4993495;28;45434;-69
2021/12/13 02:12:05;;;;;;;;;25.33;21.33;;;;;11.85;75.72;102224.03;4998357;28;45451;-69
2021/12/13 02:14:33;;;;;;;;;29.67;25.67;;;;;11.89;75.50;102237.97;4998477;28;45415;-68
2021/12/13 02:17:10;;;;;;;;;25.00;24.33;;;;;11.74;75.80;102218.63;4997209;28;45468;-68
2021/12/13 02:20:00;;;;;;;;;26.00;24.33;;;;;11.83;75.65;102241.94;4993356;28;45452;-68
2021/12/13 02:22:26;;;;;;;;;26.00;23.33;;;;;11.84;75.92;102246.31;4977452;28;45551;-69
2021/12/13 02:24:56;;;;;;;;;24.67;23.00;;;;;11.87;76.15;102248.75;4978615;28;45516;-67
2021/12/13 02:27:31;;;;;;;;;25.33;21.67;;;;;11.85;75.41;102248.00;4987286;28;45393;-67
2021/12/13 02:30:00;;;;;;;;;29.67;28.67;;;;;11.86;76.19;102257.72;4995892;28;45346;-67
2021/12/13 02:32:28;;;;;;;;;30.33;25.33;;;;;11.81;76.00;102246.56;4978596;28;46706;-69
2021/12/13 02:34:56;;;;;;;;;24.33;23.67;;;;;11.76;76.16;102230.00;4978590;28;45690;-68
2021/12/13 02:37:25;;;;;;;;;27.00;25.33;;;;;11.80;76.18;102233.31;4978555;28;45186;-68
2021/12/13 02:39:56;;;;;;;;;23.67;23.67;;;;;11.91;75.78;102244.03;4978726;28;45246;-67
2021/12/13 02:42:23;;;;;;;;;30.00;26.33;;;;;11.88;75.88;102245.09;4978393;28;45787;-68
2021/12/13 02:44:56;;;;;;;;;30.67;28.67;;;;;11.51;75.31;102187.53;4981550;28;45458;-69
2021/12/13 02:47:33;;;;;;;;;25.00;21.33;;;;;11.73;75.66;102214.25;4996915;28;45335;-67
2021/12/13 02:50:00;;;;;;;;;24.00;21.00;;;;;11.77;75.54;102220.19;4997429;28;45234;-69
2021/12/13 02:52:27;;;;;;;;;27.33;23.67;;;;;11.56;75.76;102186.22;4997840;28;46552;-67
2021/12/13 02:55:03;;;;;;;;;24.33;24.33;;;;;11.23;75.56;102135.50;4997430;28;45481;-68
2021/12/13 02:57:42;;;;;;;;;19.33;18.33;;;;;11.86;75.43;102231.06;4997630;28;45392;-66
2021/12/13 03:00:47;;;;;;;;;24.00;21.67;;;;;11.90;75.71;102231.66;4991695;28;45586;-68
2021/12/13 03:03:18;;;;;;;;;22.67;21.67;;;;;11.90;75.19;102230.81;4917577;28;47523;-68
2021/12/13 03:05:47;;;;;;;;;23.67;20.67;;;;;11.83;75.39;102239.28;4980089;28;45596;-68
2021/12/13 03:08:33;;;;;;;;;25.33;22.67;;;;;11.81;75.80;102241.22;4997657;28;45217;-68
2021/12/13 03:11:03;;;;;;;;;23.00;23.00;;;;;11.84;75.59;102238.31;4997562;28;45499;-68
2021/12/13 03:13:32;;;;;;;;;23.33;19.33;;;;;11.76;75.24;102215.84;4997344;28;45341;-67
2021/12/13 03:16:16;;;;;;;;;27.33;23.00;;;;;11.81;75.86;102233.22;4981543;28;45366;-68
2021/12/13 03:19:08;;;;;;;;;24.67;21.67;;;;;11.81;75.66;102240.34;4978057;28;45397;-68
2021/12/13 03:21:56;;;;;;;;;27.67;24.67;;;;;11.38;75.55;102160.94;4971677;28;45609;-68
2021/12/13 03:24:58;;;;;;;;;31.33;24.67;;;;;11.82;76.01;102250.06;4977515;28;46339;-68
2021/12/13 03:27:42;;;;;;;;;27.00;25.67;;;;;11.83;75.95;102236.63;4981027;28;45776;-68
2021/12/13 03:30:13;;;;;;;;;26.33;23.33;;;;;11.82;75.70;102232.25;4985463;28;45521;-68
2021/12/13 03:32:53;;;;;;;;;27.67;26.00;;;;;11.82;75.98;102226.09;4997403;28;45337;-67
2021/12/13 03:35:33;;;;;;;;;23.67;20.00;;;;;11.75;75.25;102222.97;4997261;28;45325;-68
2021/12/13 03:38:05;;;;;;;;;21.33;20.00;;;;;11.79;75.70;102219.13;4997077;28;45503;-68
2021/12/13 03:40:32;;;;;;;;;25.67;18.00;;;;;11.72;75.16;102207.22;4994195;28;45528;-68
2021/12/13 03:43:02;;;;;;;;;22.67;22.67;;;;;11.32;75.54;102140.13;4997713;28;45179;-67
2021/12/13 03:45:39;;;;;;;;;18.33;18.33;;;;;11.81;75.42;102211.91;4996584;28;47026;-67
2021/12/13 03:48:09;;;;;;;;;26.00;23.33;;;;;11.83;75.64;102219.78;4996764;28;45365;-67
2021/12/13 03:50:47;;;;;;;;;22.67;20.67;;;;;11.87;75.06;102216.75;4995768;28;45361;-68
2021/12/13 03:53:20;;;;;;;;;23.00;18.33;;;;;11.73;74.73;102202.75;4996514;28;45450;-68
2021/12/13 03:55:51;;;;;;;;;25.67;19.00;;;;;11.78;75.66;102206.78;4976992;28;47028;-68
2021/12/13 03:58:19;;;;;;;;;21.00;18.00;;;;;11.79;75.03;102196.97;4977084;28;45330;-67
2021/12/13 04:00:51;;;;;;;;;15.67;13.67;;;;;11.81;74.85;102198.59;4977363;28;45330;-69
2021/12/13 04:03:18;;;;;;;;;25.00;19.33;;;;;11.93;75.08;102214.59;4977696;28;45559;-68
2021/12/13 04:05:45;;;;;;;;;19.33;18.33;;;;;11.93;74.67;102210.09;4977069;28;46595;-69
2021/12/13 04:08:12;;;;;;;;;25.33;20.33;;;;;11.80;74.38;102188.00;4976877;28;45500;-69
2021/12/13 04:10:42;;;;;;;;;22.00;18.67;;;;;11.77;74.70;102197.06;4996893;28;45741;-68
2021/12/13 04:13:14;;;;;;;;;23.33;19.33;;;;;11.72;74.23;102193.91;4996823;28;45399;-68
2021/12/13 04:16:11;;;;;;;;;16.33;15.00;;;;;11.55;74.11;102168.53;4985441;28;46023;-68
2021/12/13 04:21:14;;;;;;;;;14.33;12.00;;;;;11.78;74.55;102188.13;4977210;28;45436;-68
2021/12/13 04:23:41;;;;;;;;;19.00;16.00;;;;;11.90;74.21;102212.16;4979398;28;45491;-68
2021/12/13 04:26:10;;;;;;;;;15.33;13.67;;;;;11.90;74.05;102209.50;4996275;28;46387;-68
2021/12/13 04:28:41;;;;;;;;;20.00;19.33;;;;;11.87;73.91;102199.94;4996536;28;45276;-68
2021/12/13 04:31:10;;;;;;;;;18.33;17.00;;;;;11.90;74.23;102210.34;4996472;28;45340;-68
2021/12/13 04:34:05;;;;;;;;;15.33;15.00;;;;;11.85;73.53;102208.03;4996582;28;45357;-68
2021/12/13 04:36:47;;;;;;;;;21.00;19.00;;;;;11.92;74.08;102219.06;4998839;28;46092;-67
2021/12/13 04:39:17;;;;;;;;;16.33;15.33;;;;;11.97;73.94;102216.91;4989918;28;45458;-68
2021/12/13 04:41:53;;;;;;;;;15.33;15.33;;;;;11.97;73.78;102216.91;4976894;28;45246;-69
2021/12/13 04:44:37;;;;;;;;;17.00;17.00;;;;;12.04;73.40;102222.63;4994432;28;45658;-68
2021/12/13 04:47:25;;;;;;;;;11.33;11.33;;;;;12.02;73.08;102219.25;4978637;28;47766;-68
2021/12/13 04:50:02;;;;;;;;;18.00;16.67;;;;;12.04;73.34;102219.97;4996383;28;45317;-68
2021/12/13 04:52:28;;;;;;;;;16.33;15.00;;;;;12.01;73.32;102214.84;4998381;28;45552;-67
2021/12/13 04:54:55;;;;;;;;;12.00;9.00;;;;;12.06;72.85;102231.34;4986146;28;45418;-67
2021/12/13 04:57:22;;;;;;;;;20.00;15.33;;;;;12.07;73.41;102238.38;4979765;28;45616;-68
2021/12/13 04:59:53;;;;;;;;;19.00;17.33;;;;;12.02;72.83;102225.41;4979848;28;45305;-68
2021/12/13 05:02:20;;;;;;;;;16.00;16.00;;;;;11.97;72.84;102224.03;4981178;28;45602;-67
2021/12/13 05:04:52;;;;;;;;;19.67;18.67;;;;;11.90;73.39;102220.16;4980212;28;45509;-68
2021/12/13 05:07:18;;;;;;;;;18.00;15.33;;;;;11.96;72.83;102219.69;4979683;28;45964;-69
2021/12/13 05:09:47;;;;;;;;;18.67;15.00;;;;;11.96;72.79;102231.19;4979579;28;45557;-68
2021/12/13 05:12:17;;;;;;;;;16.67;15.67;;;;;11.79;72.36;102208.47;4980072;28;45343;-68
2021/12/13 05:14:42;;;;;;;;;12.33;11.67;;;;;11.85;72.88;102240.03;4979876;28;45536;-68
2021/12/13 05:17:26;;;;;;;;;17.00;14.33;;;;;11.80;73.23;102239.50;4979093;28;46066;-68
2021/12/13 05:20:07;;;;;;;;;18.33;17.67;;;;;11.69;73.06;102234.09;4983431;28;45569;-69
2021/12/13 05:22:47;;;;;;;;;14.33;13.33;;;;;11.31;73.61;102172.19;4979524;28;45212;-69
2021/12/13 05:25:21;;;;;;;;;18.33;18.33;;;;;11.66;73.42;102239.66;4979740;28;45567;-68
2021/12/13 05:27:56;;;;;;;;;16.33;13.33;;;;;11.62;73.98;102232.88;4979325;28;45424;-68
2021/12/13 05:30:23;;;;;;;;;16.67;15.33;;;;;11.64;73.42;102252.25;4979311;28;45237;-69
2021/12/13 05:32:52;;;;;;;;;13.00;13.00;;;;;11.20;73.29;102168.50;4986622;28;45543;-68
2021/12/13 05:35:30;;;;;;;;;14.33;14.33;;;;;11.69;73.94;102247.41;4999273;28;45471;-69
2021/12/13 05:38:00;;;;;;;;;15.67;15.67;;;;;11.70;73.52;102235.81;4999023;28;46966;-68
2021/12/13 05:40:39;;;;;;;;;16.33;15.33;;;;;11.79;73.30;102243.13;4998859;28;45333;-68
2021/12/13 05:43:25;;;;;;;;;19.33;16.33;;;;;11.77;72.95;102242.34;4999085;28;45294;-67
2021/12/13 05:45:58;;;;;;;;;18.33;17.33;;;;;11.74;73.06;102237.25;4999211;28;45532;-67
2021/12/13 05:48:38;;;;;;;;;17.00;17.00;;;;;11.62;73.50;102240.00;4983850;28;45722;-69
2021/12/13 05:51:25;;;;;;;;;18.33;17.00;;;;;11.64;73.78;102246.94;4979083;28;45429;-69
2021/12/13 05:54:13;;;;;;;;;19.33;18.00;;;;;11.50;73.58;102234.63;4977288;28;45412;-67
2021/12/13 05:56:54;;;;;;;;;21.33;19.67;;;;;11.20;73.59;102187.13;4979338;28;45295;-68
2021/12/13 05:59:25;;;;;;;;;22.33;17.33;;;;;11.50;73.37;102239.09;4983116;28;48063;-68
2021/12/13 06:01:56;;;;;;;;;19.00;17.67;;;;;11.42;74.14;102236.16;4978765;28;45311;-68
2021/12/13 06:04:45;;;;;;;;;17.00;16.00;;;;;11.41;74.06;102245.09;4977659;28;45467;-68
2021/12/13 06:07:20;;;;;;;;;20.33;19.00;;;;;11.43;74.40;102253.84;4968186;28;45580;-68
2021/12/13 06:09:57;;;;;;;;;20.00;18.67;;;;;11.40;74.03;102246.06;4978986;28;46695;-67
2021/12/13 06:12:25;;;;;;;;;22.00;18.33;;;;;11.41;74.20;102234.44;4978637;28;45497;-68
2021/12/13 06:14:52;;;;;;;;;17.67;16.67;;;;;11.37;74.04;102231.16;4993044;28;45485;-68
2021/12/13 06:17:26;;;;;;;;;18.33;16.00;;;;;11.22;73.53;102208.34;4979758;28;45349;-68
2021/12/13 06:20:00;;;;;;;;;17.00;15.00;;;;;11.42;73.62;102238.81;4976972;28;46792;-70
2021/12/13 06:22:29;;;;;;;;;13.67;12.67;;;;;11.38;73.75;102234.66;4978724;28;45433;-69
2021/12/13 06:25:24;;;;;;;;;16.00;15.00;;;;;11.49;73.64;102243.56;4981190;28;45432;-68
2021/12/13 06:28:02;;;;;;;;;21.33;18.33;;;;;11.38;73.44;102234.66;4995768;28;45404;-69
2021/12/13 06:30:32;;;;;;;;;16.00;16.00;;;;;11.45;73.33;102246.59;4997672;28;45901;-67
2021/12/13 06:33:07;;;;;;;;;17.33;14.00;;;;;11.41;73.53;102239.75;4998033;28;45538;-68
2021/12/13 06:35:45;;;;;;;;;20.00;18.67;;;;;11.16;72.86;102177.66;4996006;28;45518;-69
2021/12/13 06:38:19;;;;;;;;;18.67;17.67;;;;;11.66;73.04;102250.31;4998110;28;45452;-68
2021/12/13 06:41:06;;;;;;;;;18.00;15.00;;;;;11.67;72.28;102249.34;4997559;28;45573;-70
2021/12/13 06:43:34;;;;;;;;;20.00;20.00;;;;;11.68;72.73;102259.03;4997494;28;45280;-68
2021/12/13 06:46:06;;;;;;;;;19.67;15.00;;;;;11.27;72.57;102185.72;4997944;28;45363;-68
2021/12/13 06:48:58;;;;;;;;;17.00;16.00;;;;;11.64;72.76;102248.75;4995289;28;45400;-68
2021/12/13 06:51:37;;;;;;;;;13.33;13.00;;;;;11.66;72.33;102266.31;4997337;28;46623;-69
2021/12/13 06:54:10;;;;;;;;;15.33;13.33;;;;;11.26;72.02;102194.69;4979569;28;45473;-68
2021/12/13 06:56:37;;;;;;;;;17.33;16.00;;;;;11.15;72.01;102173.31;4977670;28;45361;-68
2021/12/13 06:59:06;;;;;;;;;15.67;14.67;;;;;11.63;72.34;102237.22;4977806;28;45566;-69
2021/12/13 07:01:34;;;;;;;;;18.67;15.67;;;;;11.66;71.88;102245.00;4981437;28;47049;-69
2021/12/13 07:04:04;;;;;;;;;14.33;12.33;;;;;11.57;71.90;102230.53;4976353;28;46197;-69
2021/12/13 07:06:31;;;;;;;;;15.00;14.00;;;;;11.62;72.34;102251.53;4992206;28;45378;-68
2021/12/13 07:09:28;;;;;;;;;14.00;14.00;;;;;11.56;72.36;102250.13;4976906;28;45298;-69
2021/12/13 07:11:57;;;;;;;;;14.00;13.00;;;;;11.56;72.26;102254.63;4954957;28;47047;-68
2021/12/13 07:14:38;;;;;;;;;12.00;10.33;;;;;11.50;72.55;102247.94;4977895;28;45381;-67
2021/12/13 07:17:20;;;;;;;;;11.67;11.00;;;;;11.46;72.13;102246.47;4977912;28;45554;-66
2021/12/13 07:19:49;;;;;;;;;14.67;10.00;;;;;11.38;72.05;102240.00;4977783;28;45406;-69
2021/12/13 07:22:22;;;;;;;;;11.67;10.00;;;;;11.40;72.52;102230.91;4979987;28;45627;-71
2021/12/13 07:24:53;;;;;;;;;5.00;5.00;;;;;11.49;71.79;102237.41;4990721;28;45853;-72
2021/12/13 07:27:32;;;;;;;;;8.00;7.33;;;;;11.44;72.38;102234.22;5003156;28;45518;-67
2021/12/13 07:30:06;;;;;;;;;9.00;7.00;;;;;11.27;72.38;102211.50;4977926;28;45503;-68
2021/12/13 07:32:35;;;;;;;;;7.33;6.00;;;;;11.46;72.32;102245.63;4977422;28;46630;-68
2021/12/13 07:35:24;;;;;;;;;6.00;5.00;;;;;11.28;72.37;102229.19;4996658;28;45507;-67
2021/12/13 07:38:21;;;;;;;;;6.00;5.67;;;;;11.37;71.96;102249.78;4996429;28;45293;-70
2021/12/13 07:40:49;;;;;;;;;3.67;3.67;;;;;10.80;71.95;102153.75;4996981;28;45324;-69
2021/12/13 07:43:31;;;;;;;;;6.33;5.00;;;;;11.32;71.76;102233.31;4991082;28;47072;-68
2021/12/13 07:46:21;;;;;;;;;5.67;5.67;;;;;11.37;71.36;102254.25;4975800;28;45575;-69
2021/12/13 07:48:47;;;;;;;;;7.00;5.67;;;;;11.40;72.42;102264.69;4977721;28;46752;-68
2021/12/13 07:51:15;;;;;;;;;7.33;6.00;;;;;11.38;72.29;102269.28;4983254;28;45672;-68
2021/12/13 07:53:52;;;;;;;;;9.33;9.33;;;;;11.38;72.68;102266.63;4995262;28;47668;-67
2021/12/13 07:56:37;;;;;;;;;8.00;8.00;;;;;11.33;72.28;102258.97;4994219;28;45680;-68
2021/12/13 07:59:26;;;;;;;;;10.00;9.00;;;;;11.28;72.14;102251.31;4993832;28;45495;-68
2021/12/13 08:02:02;;;;;;;;;9.67;7.33;;;;;11.38;72.78;102250.63;4978077;28;45810;-69
2021/12/13 08:04:36;;;;;;;;;9.67;9.67;;;;;11.07;72.10;102193.47;4993014;28;46591;-71
2021/12/13 08:07:19;;;;;;;;;10.33;9.00;;;;;11.25;72.34;102246.22;4990792;28;46426;-68
2021/12/13 08:09:48;;;;;;;;;9.00;9.00;;;;;11.28;72.67;102261.97;4988384;28;45524;-68
2021/12/13 08:12:26;;;;;;;;;12.00;12.00;;;;;11.21;72.64;102250.09;4996782;28;45458;-68
2021/12/13 08:14:56;;;;;;;;;13.67;11.33;;;;;11.17;72.96;102253.06;4996337;28;46149;-67
2021/12/13 08:17:32;;;;;;;;;13.33;12.00;;;;;11.19;72.98;102257.31;4998120;28;45387;-68
2021/12/13 08:20:04;;;;;;;;;15.00;13.50;;;;;11.15;73.18;102258.50;4999943;28;45402;-69
2021/12/13 08:22:31;;;;;;;;;14.00;12.67;;;;;11.14;73.28;102250.63;4998671;28;45202;-69
2021/12/13 08:25:06;;;;;;;;;12.33;11.00;;;;;11.05;73.05;102249.47;5000331;28;46494;-68
2021/12/13 08:27:38;;;;;;;;;16.33;15.67;;;;;11.05;73.40;102254.81;4995933;28;45484;-69
2021/12/13 08:30:30;;;;;;;;;16.33;16.33;;;;;10.68;73.47;102186.56;4980325;28;45512;-67
2021/12/13 08:32:59;;;;;;;;;13.00;12.33;;;;;11.12;73.64;102266.69;4980267;28;45455;-69
2021/12/13 08:35:24;;;;;;;;;15.33;12.67;;;;;11.11;73.95;102274.81;4979960;28;45801;-67
2021/12/13 08:37:59;;;;;;;;;15.00;12.33;;;;;11.05;73.79;102270.78;4979014;28;45520;-68
2021/12/13 08:40:29;;;;;;;;;11.67;10.00;;;;;10.93;74.09;102255.66;4978474;28;45226;-68
2021/12/13 08:42:57;;;;;;;;;15.67;14.67;;;;;11.08;73.75;102267.03;4980082;28;45526;-68
2021/12/13 08:45:33;;;;;;;;;14.67;10.67;;;;;11.13;73.47;102265.75;4978091;28;47797;-68
2021/12/13 08:48:12;;;;;;;;;10.67;9.67;;;;;11.12;73.85;102272.03;4978385;28;45542;-67
2021/12/13 08:50:48;;;;;;;;;9.33;9.00;;;;;10.98;73.65;102256.19;4979817;28;45389;-68
2021/12/13 08:53:25;;;;;;;;;11.33;9.33;;;;;10.99;74.69;102276.50;4979839;28;45348;-67
2021/12/13 08:55:56;;;;;;;;;8.67;8.67;;;;;11.05;74.17;102285.91;4979236;28;46322;-70
2021/12/13 08:58:22;;;;;;;;;15.00;14.00;;;;;11.04;74.74;102274.41;4979517;28;45412;-67
2021/12/13 09:00:53;;;;;;;;;9.67;9.67;;;;;11.07;74.18;102262.69;4979915;28;45799;-68
2021/12/13 09:03:39;;;;;;;;;6.33;6.33;;;;;11.15;73.67;102274.47;4980008;28;45411;-67
2021/12/13 09:06:08;;;;;;;;;11.00;10.00;;;;;10.97;73.68;102254.50;4978288;28;48128;-68
2021/12/13 09:08:52;;;;;;;;;9.00;9.00;;;;;11.17;73.19;102287.66;4978344;28;45531;-68
2021/12/13 09:11:44;;;;;;;;;10.67;8.00;;;;;11.12;72.75;102293.31;4979608;28;45483;-68
2021/12/13 09:14:19;;;;;;;;;11.33;11.33;;;;;11.15;72.55;102287.78;4980182;28;45377;-68
2021/12/13 09:17:21;;;;;;;;;7.67;7.67;;;;;11.08;72.81;102288.34;4994643;28;47878;-68
2021/12/13 09:19:59;;;;;;;;;6.00;6.00;;;;;10.59;72.48;102223.47;4979337;28;45328;-67
2021/12/13 09:22:33;;;;;;;;;5.00;4.00;;;;;11.05;72.21;102301.88;4978344;28;45552;-67
2021/12/13 09:25:21;;;;;;;;;7.67;6.33;;;;;11.10;71.93;102303.22;4979378;28;45298;-68
2021/12/13 09:27:54;;;;;;;;;7.00;6.33;;;;;11.15;71.97;102303.75;4979443;28;46405;-68
2021/12/13 09:30:28;;;;;;;;;5.33;5.33;;;;;11.17;71.29;102299.16;4977044;28;45553;-67
2021/12/13 09:33:17;;;;;;;;;6.00;5.67;;;;;11.14;71.08;102302.03;4978074;28;45223;-68
2021/12/13 09:35:42;;;;;;;;;6.67;6.67;;;;;11.15;71.28;102302.91;4977895;28;45347;-69
2021/12/13 09:38:17;;;;;;;;;5.33;5.33;;;;;11.12;71.07;102311.94;4979049;28;46330;-68
2021/12/13 09:40:46;;;;;;;;;8.67;7.67;;;;;11.05;70.80;102301.88;4979375;28;45447;-69
2021/12/13 09:43:13;;;;;;;;;6.00;6.00;;;;;11.11;70.33;102307.59;4978712;28;45373;-68
2021/12/13 09:45:43;;;;;;;;;3.00;3.00;;;;;10.96;69.88;102279.41;4979483;28;45515;-68
2021/12/13 09:48:30;;;;;;;;;5.00;5.00;;;;;10.98;69.79;102291.63;4978872;28;45645;-69
2021/12/13 09:51:02;;;;;;;;;3.00;3.00;;;;;10.97;69.57;102305.03;4979174;28;45459;-69
2021/12/13 09:53:33;;;;;;;;;4.33;3.67;;;;;10.93;69.47;102293.78;4979110;28;45404;-69
2021/12/13 09:56:04;;;;;;;;;2.33;2.33;;;;;10.91;69.29;102295.69;4977587;28;45282;-67
2021/12/13 09:58:46;;;;;;;;;4.00;2.67;;;;;10.94;69.66;102299.94;4989996;28;48656;-68
2021/12/13 10:01:17;;;;;;;;;8.00;7.00;;;;;10.61;68.87;102240.19;4998226;28;45523;-67
2021/12/13 10:03:57;;;;;;;;;11.67;9.33;;;;;10.97;68.77;102299.72;4997118;28;45329;-70
2021/12/13 10:06:30;;;;;;;;;7.00;6.00;;;;;11.02;68.49;102313.59;4997540;28;45616;-68
2021/12/13 10:09:11;;;;;;;;;5.00;5.00;;;;;10.93;68.71;102306.22;4998422;28;46768;-70
2021/12/13 10:11:47;;;;;;;;;5.67;5.67;;;;;10.76;68.80;102314.53;4998281;28;45357;-68
2021/12/13 10:14:17;;;;;;;;;5.67;5.67;;;;;10.53;69.29;102262.94;4997213;28;45276;-69
2021/12/13 10:16:46;;;;;;;;;4.00;4.00;;;;;10.58;69.34;102276.75;4998675;28;45583;-69
2021/12/13 10:19:21;;;;;;;;;2.00;2.00;;;;;10.60;69.36;102306.75;4979094;28;45697;-67
2021/12/13 10:21:49;;;;;;;;;6.00;5.00;;;;;10.38;69.89;102274.63;4978651;28;45510;-69
2021/12/13 10:24:25;;;;;;;;;6.33;4.67;;;;;10.57;70.04;102310.50;4978573;28;45283;-68
2021/12/13 10:26:57;;;;;;;;;3.00;3.00;;;;;10.51;69.27;102283.47;4978728;28;45579;-68
2021/12/13 10:29:24;;;;;;;;;2.00;2.00;;;;;10.58;69.54;102295.38;4978501;28;45497;-69
2021/12/13 10:32:01;;;;;;;;;3.00;3.00;;;;;10.56;69.32;102294.63;4978105;28;45236;-68
2021/12/13 10:34:31;;;;;;;;;3.00;3.00;;;;;10.56;69.83;102289.31;4978457;28;45282;-68
2021/12/13 10:37:03;;;;;;;;;3.33;3.00;;;;;10.47;69.33;102282.84;4978954;28;45595;-68
2021/12/13 10:39:34;;;;;;;;;2.33;2.33;;;;;10.46;69.81;102278.47;4994136;28;47824;-68
2021/12/13 10:42:10;;;;;;;;;6.00;6.00;;;;;10.36;69.90;102250.81;4996468;28;45310;-72
2021/12/13 10:44:38;;;;;;;;;3.67;3.67;;;;;10.60;69.58;102264.22;4992561;28;45607;-71
2021/12/13 10:47:09;;;;;;;;;7.00;7.00;;;;;10.72;69.46;102281.97;4993207;28;45276;-69
2021/12/13 10:49:39;;;;;;;;;9.00;9.00;;;;;10.66;69.36;102275.28;4996148;28;46647;-68
2021/12/13 10:52:36;;;;;;;;;3.33;2.33;;;;;10.69;68.64;102290.19;4999931;28;45581;-71
2021/12/13 10:55:16;;;;;;;;;3.00;3.00;;;;;10.56;69.15;102271.56;4974969;28;45538;-68
2021/12/13 10:57:47;;;;;;;;;3.33;3.33;;;;;10.69;69.11;102286.66;4995610;28;45359;-70
2021/12/13 11:00:31;;;;;;;;;4.33;4.33;;;;;10.61;69.09;102272.13;5009256;28;45570;-69
2021/12/13 11:03:02;;;;;;;;;5.67;5.67;;;;;10.72;69.22;102275.81;4976570;28;45324;-68
2021/12/13 11:05:29;;;;;;;;;5.33;5.33;;;;;10.58;69.34;102276.75;4984415;28;45503;-69
2021/12/13 11:07:57;;;;;;;;;4.33;3.00;;;;;10.11;69.36;102205.59;4982609;28;45548;-70
2021/12/13 11:10:28;;;;;;;;;6.33;5.00;;;;;10.60;69.28;102280.16;4993612;28;45712;-70
2021/12/13 11:12:56;;;;;;;;;7.67;5.67;;;;;10.66;69.47;102293.91;4988001;28;45387;-69
2021/12/13 11:15:32;;;;;;;;;6.00;6.00;;;;;10.69;69.78;102278.69;4984107;28;45389;-69
2021/12/13 11:17:59;;;;;;;;;4.00;3.00;;;;;10.84;69.11;102282.94;4978612;28;46638;-68
2021/12/13 11:20:32;;;;;;;;;3.33;3.33;;;;;10.85;68.53;102280.19;4978221;28;45491;-69
2021/12/13 11:22:58;;;;;;;;;7.00;6.00;;;;;10.53;68.23;102226.56;4990547;28;45529;-68
2021/12/13 11:25:43;;;;;;;;;5.00;5.00;;;;;10.70;68.43;102280.41;4995004;28;45571;-68
2021/12/13 11:28:13;;;;;;;;;6.33;5.00;;;;;10.62;69.28;102278.28;4996994;28;45400;-69
2021/12/13 11:30:39;;;;;;;;;4.33;3.00;;;;;10.68;68.86;102288.47;4996572;28;45819;-69
2021/12/13 11:33:29;;;;;;;;;8.00;6.00;;;;;10.56;69.16;102292.84;4989612;28;45338;-69
2021/12/13 11:36:07;;;;;;;;;7.00;6.00;;;;;10.44;69.66;102290.19;4988077;28;45520;-67
2021/12/13 11:39:06;;;;;;;;;6.00;6.00;;;;;10.43;69.53;102276.03;4984616;28;45545;-68
2021/12/13 11:41:53;;;;;;;;;10.00;8.33;;;;;10.48;70.10;102275.72;4978274;28;46396;-71
2021/12/13 11:44:40;;;;;;;;;9.00;9.00;;;;;10.38;70.13;102275.47;4986346;28;45769;-69
2021/12/13 11:47:57;;;;;;;;;10.00;8.00;;;;;10.33;69.98;102256.34;4986712;28;45237;-68
2021/12/13 11:50:59;;;;;;;;;12.67;10.33;;;;;10.46;69.53;102273.16;4973288;28;45483;-69
2021/12/13 11:53:45;;;;;;;;;6.33;5.00;;;;;10.43;69.93;102270.72;4987484;28;46553;-68
2021/12/13 11:56:37;;;;;;;;;5.00;4.00;;;;;10.35;69.94;102270.38;4996319;28;45669;-68
2021/12/13 11:59:40;;;;;;;;;8.00;5.67;;;;;10.32;70.15;102259.97;4990347;28;45489;-71
2021/12/13 12:02:26;;;;;;;;;8.33;5.33;;;;;10.30;70.23;102237.97;5002213;28;45590;-67